METAR Data
IDs: Format: Raw Decoded Include TAF

Data at: 0254 UTC 24 Oct 2019

KFLY 232235Z AUTO 02015G18KT 1/2SM SN OVC008 01/00 A3014 RMK AO2 T00050000
KFLY 232215Z AUTO 02015G20KT 1SM -SN OVC008 01/00 A3013 RMK AO2 T00060000
KFLY 232155Z AUTO 01013G18KT 3/4SM -SN OVC008 01/00 A3011 RMK AO2 T00080000
KFLY 232135Z AUTO 02014G22KT 10SM -RA SCT018 BKN035 OVC050 04/M02 A3010 RMK AO2 T00411020
KFLY 232115Z AUTO 02017G21KT 10SM OVC050 06/M03 A3008 RMK AO2 T00551031
KFLY 232055Z AUTO 02017G24KT 10SM OVC050 07/M06 A3006 RMK AO2 T00721057
KFLY 232035Z AUTO 03013G21KT 10SM OVC050 08/M06 A3007 RMK AO2 T00821059
KFLY 232015Z AUTO 06006KT 10SM OVC050 10/M06 A3007 RMK AO2 T00951059
KFLY 231955Z AUTO 06010G16KT 10SM SCT050 11/M06 A3007 RMK AO2 T01121057
KFLY 231935Z AUTO 07007KT 10SM CLR 11/M06 A3007 RMK AO2 T01081056
KFLY 231915Z AUTO 06007KT 10SM CLR 11/M06 A3007 RMK AO2 T01051058
KFLY 231855Z AUTO 04006KT 10SM CLR 11/M05 A3007 RMK AO2 T01061054
KFLY 231835Z AUTO 05006KT 10SM CLR 10/M06 A3008 RMK AO2 T01021060
KFLY 231815Z AUTO 05011G14KT 10SM CLR 10/M05 A3008 RMK AO2 T01031048
KFLY 231755Z AUTO 01009G15KT 10SM CLR 10/M05 A3008 RMK AO2 T00991049 10099 21009
KFLY 231735Z AUTO 03008G15KT 10SM CLR 09/M04 A3009 RMK AO2 T00901043
KFLY 231715Z AUTO 03010G20KT 10SM CLR 08/M03 A3009 RMK AO2 T00771035
KFLY 231655Z AUTO 03010G18KT 10SM CLR 08/M04 A3009 RMK AO2 T00801036
KFLY 231635Z AUTO 03014G19KT 10SM CLR 07/M03 A3010 RMK AO2 T00671033
KFLY 231555Z AUTO 01015G20KT 10SM CLR 05/M02 A3011 RMK AO2 T00461025
KFLY 231535Z AUTO 02015G19KT 10SM CLR 04/M02 A3011 RMK AO2 T00381021
KFLY 231515Z AUTO 03014G23KT 10SM SCT005 02/M01 A3012 RMK AO2 T00201011
KFLY 231455Z AUTO 02017G27KT 10SM OVC005 01/M01 A3011 RMK AO2 T00121009
KFLY 231435Z AUTO 02019G26KT 10SM OVC005 01/M01 A3011 RMK AO2 T00051007
KFLY 231415Z AUTO 02012KT 10SM OVC005 00/M01 A3012 RMK AO2 T00011008
KFLY 231355Z AUTO 02012G20KT 10SM OVC005 00/M01 A3010 RMK AO2 T10011011
KFLY 231335Z AUTO 02010KT 10SM SCT007 M01/M02 A3010 RMK AO2 T10081021
KFLY 231315Z AUTO 01012G23KT 10SM CLR 00/M03 A3009 RMK AO2 T00001035
KFLY 231255Z AUTO 01009G15KT 10SM CLR 04/M09 A3007 RMK AO2 T00371092
KFLY 231235Z AUTO 34006KT 10SM CLR 03/M10 A3006 RMK AO2 T00301096
KFLY 231215Z AUTO 01006KT 10SM CLR 02/M10 A3005 RMK AO2 T00231103
KFLY 231155Z AUTO 01008KT 10SM CLR 03/M10 A3005 RMK AO2 T00271100 10077 20011
KFLY 231135Z AUTO 36007KT 10SM CLR 05/M10 A3004 RMK AO2 T00461100
KFLY 231115Z AUTO 02009KT 10SM CLR 06/M10 A3004 RMK AO2 T00561099
KFLY 231055Z AUTO 02010KT 10SM CLR 06/M10 A3002 RMK AO2 T00551098
KFLY 231035Z AUTO 01006KT 10SM CLR 07/M09 A3002 RMK AO2 T00711095
KFLY 231015Z AUTO 04005KT 10SM CLR 07/M09 A3001 RMK AO2 T00721095
KFLY 230955Z AUTO 04005KT 10SM CLR 05/M09 A3001 RMK AO2 T00501090
KFLY 230935Z AUTO 32006KT 280V340 10SM CLR 04/M09 A3000 RMK AO2 T00411090
KFLY 230915Z AUTO 35005KT 10SM CLR 02/M08 A3000 RMK AO2 T00241084
KFLY 230855Z AUTO 29008KT 10SM CLR 02/M08 A3001 RMK AO2 T00171082
KFLY 230835Z AUTO 30007KT 10SM CLR 04/M08 A3002 RMK AO2 T00401080
KFLY 230815Z AUTO 29014KT 10SM CLR 05/M08 A3002 RMK AO2 T00501078
KFLY 230755Z AUTO 31008KT 10SM CLR 07/M08 A3001 RMK AO2 T00671078
KFLY 230735Z AUTO 30011KT 10SM CLR 07/M08 A3002 RMK AO2 T00731076
KFLY 230715Z AUTO 30013KT 10SM CLR 08/M07 A3002 RMK AO2 T00761073
KFLY 230655Z AUTO 30012KT 10SM CLR 03/M07 A3001 RMK AO2 T00261069 401411055
KFLY 230635Z AUTO 28009KT 10SM CLR 01/M07 A3001 RMK AO2 T00111075
KFLY 230615Z AUTO 28006KT 10SM CLR 03/M07 A3001 RMK AO2 T00331072
KFLY 230555Z AUTO 25005KT 10SM CLR 06/M07 A3001 RMK AO2 T00631067 10107 20035
KFLY 230535Z AUTO 25004KT 10SM CLR 08/M07 A3002 RMK AO2 T00811068
KFLY 230435Z AUTO 35006KT 10SM CLR 05/M07 A3005 RMK AO2 T00521072
KFLY 230415Z AUTO 32004KT 10SM CLR 04/M08 A3004 RMK AO2 T00371083
KFLY 230355Z AUTO 28011KT 10SM CLR 05/M09 A3004 RMK AO2 T00531086
KFLY 230335Z AUTO 30003KT 10SM CLR 07/M08 A3004 RMK AO2 T00711083
KFLY 230315Z AUTO 04004KT 10SM CLR 06/M09 A3004 RMK AO2 T00571087
KFLY 230255Z AUTO 02011KT 10SM CLR 08/M08 A3006 RMK AO2 T00811085
KFLY 230235Z AUTO 34008KT 10SM CLR 07/M09 A3007 RMK AO2 T00741090
KFLY 230215Z AUTO 33003KT 10SM SCT075 07/M08 A3006 RMK AO2 T00741085
KFLY 230155Z AUTO 33005KT 10SM SCT075 08/M08 A3007 RMK AO2 T00831080
KFLY 230135Z AUTO 33005G08KT 10SM SCT075 09/M07 A3007 RMK AO2 T00861068
KFLY 230115Z AUTO 28008KT 10SM CLR 08/M10 A3007 RMK AO2 T00811098
KFLY 230055Z AUTO 32003G16KT 10SM CLR 11/M10 A3007 RMK AO2 T01051098
KFLY 230035Z AUTO 00000KT 10SM CLR 09/M10 A3006 RMK AO2 T00931100
KFLY 230015Z AUTO 10010KT 10SM CLR 10/M10 A3004 RMK AO2 T00971100
KFLY 222355Z AUTO 14003KT 10SM CLR 10/M10 A3006 RMK AO2 T01021101 10141 20095
KFLY 222335Z AUTO 15003KT 10SM CLR 12/M10 A3006 RMK AO2 T01221101
KFLY 222315Z AUTO 19009KT 10SM CLR 13/M10 A3006 RMK AO2 T01341100
KFLY 222255Z AUTO 18004G15KT 10SM CLR 14/M10 A3006 RMK AO2 T01371100
KFLY 222235Z AUTO 17010G15KT 10SM CLR 14/M10 A3006 RMK AO2 T01401100
KFLY 222215Z AUTO 20005G15KT 10SM CLR 14/M10 A3007 RMK AO2 T01391102
KFLY 222155Z AUTO 18006KT 5SM HZ CLR 14/M10 A3007 RMK AO2 T01391103
KFLY 222135Z AUTO 18007G17KT 10SM CLR 14/M10 A3007 RMK AO2 T01361102
KFLY 222115Z AUTO 19007G16KT 10SM CLR 14/M10 A3008 RMK AO2 T01381102
KFLY 222055Z AUTO 17010G16KT 120V190 10SM CLR 14/M10 A3008 RMK AO2 T01351104
KFLY 222035Z AUTO 19008KT 10SM CLR 13/M10 A3010 RMK AO2 T01311105
KFLY 222015Z AUTO 19009G21KT 7SM CLR 13/M11 A3010 RMK AO2 T01251108
KFLY 221955Z AUTO 19007KT 10SM CLR 12/M11 A3012 RMK AO2 T01241110
KFLY 221935Z AUTO 22009G16KT 10SM CLR 12/M11 A3014 RMK AO2 T01191110
KFLY 221915Z AUTO 22009KT 10SM CLR 12/M11 A3014 RMK AO2 T01161106
KFLY 221855Z AUTO 21008KT 180V240 7SM CLR 11/M10 A3015 RMK AO2 T01111104
KFLY 221835Z AUTO 20009G18KT 10SM CLR 10/M11 A3017 RMK AO2 T01011106
KFLY 221815Z AUTO 20008G15KT 10SM CLR 10/M10 A3018 RMK AO2 T00961105
KFLY 221755Z AUTO 22007G17KT 10SM CLR 09/M11 A3020 RMK AO2 T00921107 10092 21055
KFLY 221735Z AUTO 21007KT 10SM CLR 09/M10 A3020 RMK AO2 T00911103
KFLY 221655Z AUTO 15005KT 10SM CLR 07/M10 A3021 RMK AO2 T00721105
KFLY 221635Z AUTO 16003KT 10SM CLR 06/M11 A3022 RMK AO2 T00611106
KFLY 221615Z AUTO 22007KT 7SM CLR 06/M10 A3022 RMK AO2 T00551105
KFLY 221555Z AUTO 22006KT 10SM CLR 05/M10 A3023 RMK AO2 T00451104
KFLY 221535Z AUTO 21006KT 7SM CLR 04/M10 A3023 RMK AO2 T00371104
KFLY 221515Z AUTO 22007KT 10SM CLR 03/M10 A3023 RMK AO2 T00301100
KFLY 221455Z AUTO 22007KT 10SM CLR 02/M09 A3022 RMK AO2 T00231095